Terminal Aerodrome Forecast
Issued by NWS Jackson, MS

Home | Current Version | Previous Version | Text Only | Print | Product List | Glossary On
Versions: 1 2 3 4 5 6 7 8 9 10 11 12 13 14 15 16 17 18
222
FTUS44 KMEG 270530
TAFTUP
TAF
KTUP 270530Z 2706/2806 18003KT P6SM BKN250
     FM271500 19011G18KT P6SM BKN035
     FM271700 21013G25KT 6SM SHRA VCTS SCT025CB OVC050
     FM280200 22010KT 5SM SHRA VCTS SCT025CB OVC050=

USA.gov is the U.S. government's official web portal to all federal, state and local government web resources and services.